Time;durP1;ratioP1;P1;durP2;ratioP2;P2;SDS_P1;SDS_P2;PMS_P1;PMS_P2;Temp;Humidity;BMP_temperature;BMP_pressure;BME280_temperature;BME280_humidity;BME280_pressure;Samples;Min_cycle;Max_cycle;Signal;HPM_P1;HPM_P2
2021/05/07 00:01:17;;;;;;;0.97;0.80;;;11.20;99.90;;;;;;5073311;28;20462;-56
2021/05/07 00:03:43;;;;;;;1.00;0.70;;;11.00;99.90;;;;;;5073309;28;20403;-56
2021/05/07 00:06:10;;;;;;;1.00;0.80;;;11.10;99.90;;;;;;5072637;28;20205;-54
2021/05/07 00:08:38;;;;;;;0.97;0.87;;;11.10;99.90;;;;;;5062914;28;20170;-53
2021/05/07 00:11:08;;;;;;;0.80;0.70;;;11.10;99.90;;;;;;5053523;28;20393;-54
2021/05/07 00:13:34;;;;;;;1.30;1.10;;;11.20;99.90;;;;;;5053220;28;20432;-57
2021/05/07 00:16:00;;;;;;;1.23;1.13;;;11.10;99.90;;;;;;5053080;28;20793;-56
2021/05/07 00:18:26;;;;;;;1.00;0.90;;;11.00;99.90;;;;;;5052796;28;20503;-56
2021/05/07 00:20:52;;;;;;;1.00;0.90;;;11.10;99.90;;;;;;5052542;28;20307;-56
2021/05/07 00:23:18;;;;;;;1.20;1.10;;;11.00;99.90;;;;;;5053068;28;20890;-56
2021/05/07 00:25:45;;;;;;;0.80;0.80;;;10.90;99.90;;;;;;5052927;28;20423;-56
2021/05/07 00:28:12;;;;;;;1.97;0.80;;;11.10;99.90;;;;;;5059638;28;20186;-57
2021/05/07 00:30:38;;;;;;;1.23;1.03;;;10.90;99.90;;;;;;5072794;28;20415;-56
2021/05/07 00:33:06;;;;;;;1.20;1.00;;;10.80;99.90;;;;;;5073069;28;20408;-54
2021/05/07 00:35:31;;;;;;;1.10;1.00;;;10.70;99.90;;;;;;5072822;28;20435;-55
2021/05/07 00:37:57;;;;;;;1.47;0.90;;;10.70;99.90;;;;;;5073919;28;20462;-54
2021/05/07 00:40:23;;;;;;;1.03;0.93;;;10.70;99.90;;;;;;5073658;28;20173;-55
2021/05/07 00:42:49;;;;;;;1.57;0.70;;;10.80;99.90;;;;;;5073495;28;20603;-55
2021/05/07 00:45:16;;;;;;;0.83;0.83;;;10.80;99.90;;;;;;5072717;28;20462;-59
2021/05/07 00:47:44;;;;;;;0.97;0.90;;;10.80;99.90;;;;;;5072882;28;20236;-57
2021/05/07 00:50:10;;;;;;;1.00;0.67;;;10.80;99.90;;;;;;5072571;28;20410;-57
2021/05/07 00:52:37;;;;;;;1.30;1.00;;;10.70;99.90;;;;;;5071537;28;20423;-52
2021/05/07 00:55:07;;;;;;;1.37;1.00;;;10.70;99.90;;;;;;5073005;28;20431;-56
2021/05/07 00:57:34;;;;;;;1.10;1.00;;;10.60;99.90;;;;;;5072313;28;20472;-57
2021/05/07 01:00:01;;;;;;;1.00;0.90;;;10.70;99.90;;;;;;5073496;28;20902;-55
2021/05/07 01:02:27;;;;;;;1.60;0.90;;;10.70;99.90;;;;;;5076295;28;20464;-56
2021/05/07 01:04:53;;;;;;;0.80;0.80;;;10.80;99.90;;;;;;5075850;28;20446;-57
2021/05/07 01:07:19;;;;;;;0.83;0.70;;;10.40;99.90;;;;;;5076034;28;20188;-55
2021/05/07 01:09:48;;;;;;;0.80;0.73;;;10.30;99.90;;;;;;5075998;28;20409;-55
2021/05/07 01:12:14;;;;;;;0.90;0.80;;;10.30;99.90;;;;;;5076261;28;20817;-56
2021/05/07 01:14:39;;;;;;;0.73;0.73;;;10.20;99.90;;;;;;5075819;28;20433;-57
2021/05/07 01:17:05;;;;;;;1.13;0.87;;;10.40;99.90;;;;;;5076333;28;20615;-55
2021/05/07 01:19:30;;;;;;;0.87;0.80;;;10.30;99.90;;;;;;5075131;28;20169;-57
2021/05/07 01:21:56;;;;;;;1.20;1.10;;;10.30;99.90;;;;;;5075945;28;20260;-57
2021/05/07 01:24:26;;;;;;;1.00;0.77;;;10.30;99.90;;;;;;5075538;28;20227;-55
2021/05/07 01:26:53;;;;;;;0.90;0.80;;;10.30;99.90;;;;;;5075544;28;20176;-56
2021/05/07 01:29:19;;;;;;;0.83;0.73;;;10.10;99.90;;;;;;5075518;28;20925;-55
2021/05/07 01:31:46;;;;;;;0.70;0.60;;;10.10;99.90;;;;;;5075814;28;20406;-56
2021/05/07 01:34:12;;;;;;;0.93;0.83;;;9.90;99.90;;;;;;5075262;28;20507;-56
2021/05/07 01:36:37;;;;;;;1.10;0.87;;;9.70;99.90;;;;;;5075157;28;20568;-54
2021/05/07 01:39:04;;;;;;;1.03;0.90;;;9.60;99.90;;;;;;5075065;28;20167;-54
2021/05/07 01:41:29;;;;;;;1.40;1.00;;;9.40;99.90;;;;;;5075564;28;20258;-56
2021/05/07 01:43:56;;;;;;;1.20;1.10;;;9.40;99.90;;;;;;5075256;28;20438;-56
2021/05/07 01:46:22;;;;;;;1.63;0.90;;;9.40;99.90;;;;;;5075243;28;20179;-57
2021/05/07 01:48:48;;;;;;;1.00;0.80;;;9.40;99.90;;;;;;5073892;28;20465;-56
2021/05/07 01:51:13;;;;;;;0.90;0.83;;;9.20;99.90;;;;;;5075006;28;20245;-56
2021/05/07 01:53:39;;;;;;;0.90;0.80;;;9.10;99.90;;;;;;5075269;28;20328;-55
2021/05/07 01:56:04;;;;;;;1.40;0.83;;;9.20;99.90;;;;;;5075257;28;20188;-55
2021/05/07 01:58:30;;;;;;;1.07;0.97;;;9.30;99.90;;;;;;5075435;28;20222;-55
2021/05/07 02:00:57;;;;;;;1.73;0.93;;;9.30;99.90;;;;;;5075230;28;20176;-56
2021/05/07 02:03:23;;;;;;;0.93;0.83;;;9.20;99.90;;;;;;5059483;28;20168;-57
2021/05/07 02:05:48;;;;;;;1.73;0.90;;;9.30;99.90;;;;;;5082516;23;20868;-59
2021/05/07 02:08:14;;;;;;;1.40;0.83;;;9.50;99.90;;;;;;5075969;28;20176;-58
2021/05/07 02:10:40;;;;;;;2.40;0.93;;;9.60;99.90;;;;;;5075101;28;20169;-58
2021/05/07 02:13:08;;;;;;;1.20;1.10;;;9.40;99.90;;;;;;5075370;28;20166;-57
2021/05/07 02:15:34;;;;;;;1.47;1.20;;;9.40;99.90;;;;;;5075194;28;20412;-58
2021/05/07 02:18:00;;;;;;;0.80;0.77;;;9.40;99.90;;;;;;5072893;28;20840;-57
2021/05/07 02:20:28;;;;;;;0.83;0.73;;;9.40;99.90;;;;;;5054821;28;20411;-58
2021/05/07 02:22:54;;;;;;;0.83;0.70;;;9.50;99.90;;;;;;5055499;28;20414;-57
2021/05/07 02:25:22;;;;;;;0.77;0.70;;;9.60;99.90;;;;;;5054817;28;20447;-58
2021/05/07 02:27:49;;;;;;;1.00;0.90;;;9.70;99.90;;;;;;5055244;28;20895;-59
2021/05/07 02:30:19;;;;;;;1.07;0.97;;;9.70;99.90;;;;;;5055719;28;20417;-59
2021/05/07 02:32:44;;;;;;;0.80;0.70;;;9.70;99.90;;;;;;5054817;28;20413;-58
2021/05/07 02:35:11;;;;;;;1.03;0.93;;;9.70;99.90;;;;;;5054398;28;20434;-58
2021/05/07 02:37:36;;;;;;;1.67;0.80;;;9.70;99.90;;;;;;5055031;28;20211;-59
2021/05/07 02:40:04;;;;;;;1.10;0.80;;;9.80;99.90;;;;;;5054659;28;20498;-59
2021/05/07 02:42:29;;;;;;;1.00;0.90;;;9.90;99.90;;;;;;5054579;28;20169;-58
2021/05/07 02:44:55;;;;;;;1.07;0.97;;;9.60;99.90;;;;;;5054516;28;20785;-59
2021/05/07 02:47:21;;;;;;;1.67;1.10;;;9.50;99.90;;;;;;5054518;28;20599;-58
2021/05/07 02:49:47;;;;;;;1.20;1.00;;;9.50;99.90;;;;;;5053998;28;20429;-58
2021/05/07 02:52:13;;;;;;;1.40;1.30;;;9.60;99.90;;;;;;5054633;28;20188;-58
2021/05/07 02:54:38;;;;;;;1.33;1.23;;;9.50;99.90;;;;;;5054089;28;20413;-59
2021/05/07 02:57:04;;;;;;;1.50;1.20;;;9.50;99.90;;;;;;5054113;28;20666;-58
2021/05/07 02:59:30;;;;;;;1.27;1.03;;;9.60;99.90;;;;;;5054287;28;20231;-57
2021/05/07 03:01:55;;;;;;;1.20;1.10;;;9.50;99.90;;;;;;5054186;28;20756;-56
2021/05/07 03:04:21;;;;;;;1.20;1.10;;;9.40;99.90;;;;;;5053884;28;20616;-58
2021/05/07 03:06:48;;;;;;;1.57;1.20;;;9.40;99.90;;;;;;5053614;28;20232;-59
2021/05/07 03:09:14;;;;;;;1.50;1.40;;;9.60;99.90;;;;;;5053942;28;20460;-59
2021/05/07 03:11:39;;;;;;;1.67;1.57;;;9.70;99.90;;;;;;5054741;28;20438;-58
2021/05/07 03:14:06;;;;;;;1.37;1.27;;;9.40;99.90;;;;;;5054398;28;20172;-58
2021/05/07 03:16:31;;;;;;;2.40;1.77;;;9.30;99.90;;;;;;5054143;28;20281;-60
2021/05/07 03:18:57;;;;;;;1.40;1.00;;;9.40;99.90;;;;;;5053409;28;20575;-60
2021/05/07 03:21:23;;;;;;;1.43;1.27;;;9.20;99.90;;;;;;5053731;28;20162;-59
2021/05/07 03:23:49;;;;;;;1.60;1.50;;;9.30;99.90;;;;;;5053230;28;20448;-58
2021/05/07 03:26:15;;;;;;;2.63;1.60;;;9.20;99.90;;;;;;5054017;28;20422;-58
2021/05/07 03:28:40;;;;;;;1.50;1.40;;;9.30;99.90;;;;;;5053829;28;20178;-58
2021/05/07 03:31:09;;;;;;;1.43;1.30;;;9.30;99.90;;;;;;5053767;28;20176;-60
2021/05/07 03:33:36;;;;;;;1.33;1.20;;;9.30;99.90;;;;;;5053460;28;20159;-60
2021/05/07 03:36:02;;;;;;;1.77;1.30;;;9.30;99.90;;;;;;5053294;28;20484;-60
2021/05/07 03:38:28;;;;;;;1.20;1.10;;;9.30;99.90;;;;;;5053828;28;20453;-60
2021/05/07 03:40:53;;;;;;;1.20;1.10;;;9.20;99.90;;;;;;5053648;28;20463;-60
2021/05/07 03:43:19;;;;;;;1.60;1.50;;;9.10;99.90;;;;;;5053585;28;20175;-60
2021/05/07 03:45:45;;;;;;;1.67;1.50;;;9.20;99.90;;;;;;5053387;28;20619;-60
2021/05/07 03:48:18;;;;;;;1.60;1.50;;;9.30;99.90;;;;;;5053548;28;20173;-60
2021/05/07 03:50:44;;;;;;;1.97;1.60;;;9.30;99.90;;;;;;5052575;28;20223;-60
2021/05/07 03:53:14;;;;;;;1.83;1.60;;;9.20;99.90;;;;;;5053508;28;20431;-60
2021/05/07 03:55:40;;;;;;;1.37;1.23;;;9.30;99.90;;;;;;5053717;28;20993;-60
2021/05/07 03:58:07;;;;;;;1.70;1.60;;;9.20;99.90;;;;;;5052177;28;20549;-59
2021/05/07 04:00:33;;;;;;;1.70;1.60;;;9.40;99.90;;;;;;5053311;28;20505;-58
2021/05/07 04:03:00;;;;;;;2.63;1.67;;;9.30;99.90;;;;;;5052984;28;20415;-59
2021/05/07 04:05:25;;;;;;;2.23;2.03;;;9.20;99.90;;;;;;5053113;28;20426;-60
2021/05/07 04:08:07;;;;;;;2.03;1.90;;;9.20;99.90;;;;;;5053637;28;20484;-59
2021/05/07 04:10:37;;;;;;;2.37;2.17;;;9.10;99.90;;;;;;5053487;28;20155;-57
2021/05/07 04:15:28;;;;;;;1.90;1.80;;;8.90;99.90;;;;;;5053418;28;20831;-60
2021/05/07 04:17:53;;;;;;;2.10;2.00;;;8.80;99.90;;;;;;5053656;28;20237;-60
2021/05/07 04:20:19;;;;;;;1.80;1.70;;;8.80;99.90;;;;;;5053218;28;20627;-58
2021/05/07 04:22:45;;;;;;;2.43;1.90;;;8.90;99.90;;;;;;5053455;28;20218;-59
2021/05/07 04:25:11;;;;;;;2.50;2.30;;;8.90;99.90;;;;;;5053261;28;20198;-60
2021/05/07 04:27:37;;;;;;;2.70;2.50;;;8.90;99.90;;;;;;5053221;28;20200;-60
2021/05/07 04:30:05;;;;;;;1.57;1.47;;;8.90;99.90;;;;;;5052650;28;20467;-60
2021/05/07 04:32:31;;;;;;;1.87;1.77;;;8.90;99.90;;;;;;5052991;28;20409;-58
2021/05/07 04:34:56;;;;;;;1.87;1.77;;;8.90;99.90;;;;;;5056114;28;20794;-60
2021/05/07 04:37:22;;;;;;;2.17;1.97;;;8.90;99.90;;;;;;5057183;28;20188;-60
2021/05/07 04:39:47;;;;;;;1.70;1.60;;;8.90;99.90;;;;;;5039164;28;20163;-60
2021/05/07 04:42:13;;;;;;;1.70;1.60;;;8.90;99.90;;;;;;5057212;28;20159;-59
2021/05/07 04:44:41;;;;;;;4.20;1.70;;;8.80;99.90;;;;;;5056380;28;20163;-59
2021/05/07 04:47:07;;;;;;;1.40;1.30;;;8.80;99.90;;;;;;5056975;28;20589;-60
2021/05/07 04:49:32;;;;;;;1.60;1.50;;;8.80;99.90;;;;;;5056862;28;20405;-60
2021/05/07 04:51:58;;;;;;;3.40;1.40;;;9.10;99.90;;;;;;5057006;28;20165;-60
2021/05/07 04:54:25;;;;;;;2.10;1.80;;;9.10;99.90;;;;;;5056438;28;20168;-60
2021/05/07 04:56:51;;;;;;;1.87;1.30;;;8.80;99.90;;;;;;5056129;28;20275;-56
2021/05/07 04:59:17;;;;;;;1.40;1.30;;;8.80;99.90;;;;;;5065252;28;20515;-58
2021/05/07 05:01:42;;;;;;;2.80;1.30;;;8.70;99.90;;;;;;5056501;28;20409;-60
2021/05/07 05:04:08;;;;;;;1.40;1.30;;;8.70;99.90;;;;;;5056325;28;20164;-60
2021/05/07 05:06:34;;;;;;;1.40;1.30;;;8.60;99.90;;;;;;5056207;28;20206;-60
2021/05/07 05:08:59;;;;;;;3.23;1.43;;;8.60;99.90;;;;;;5056299;28;20177;-60
2021/05/07 05:11:25;;;;;;;1.43;1.33;;;8.80;99.90;;;;;;5056947;28;20600;-60
2021/05/07 05:13:50;;;;;;;1.63;1.53;;;8.60;99.90;;;;;;5055812;28;20633;-58
2021/05/07 05:16:16;;;;;;;1.80;1.30;;;8.50;99.90;;;;;;5056230;28;20185;-59
2021/05/07 05:18:41;;;;;;;1.40;1.30;;;8.60;99.90;;;;;;5056417;28;20199;-60
2021/05/07 05:21:09;;;;;;;0.93;0.90;;;8.60;99.90;;;;;;5056058;28;20171;-60
2021/05/07 05:23:35;;;;;;;1.60;1.50;;;8.70;99.90;;;;;;5056417;28;20170;-60
2021/05/07 05:26:01;;;;;;;1.20;1.10;;;8.60;99.90;;;;;;5056818;28;20444;-60
2021/05/07 05:28:27;;;;;;;1.10;1.00;;;8.60;99.90;;;;;;5047196;28;20432;-59
2021/05/07 05:30:53;;;;;;;2.33;2.00;;;8.70;99.90;;;;;;5037536;28;20176;-59
2021/05/07 05:33:19;;;;;;;1.80;1.70;;;8.60;99.90;;;;;;5019063;28;20411;-58
2021/05/07 05:35:45;;;;;;;1.80;1.70;;;8.40;99.90;;;;;;5035821;28;20433;-59
2021/05/07 05:38:12;;;;;;;1.87;1.77;;;8.40;99.90;;;;;;5035898;28;20205;-60
2021/05/07 05:40:38;;;;;;;2.20;2.10;;;8.60;99.90;;;;;;5035723;28;20418;-59
2021/05/07 05:43:04;;;;;;;3.17;2.87;;;8.60;99.90;;;;;;5035691;28;20407;-57
2021/05/07 05:45:30;;;;;;;2.97;2.77;;;8.70;99.90;;;;;;5035328;28;20672;-60
2021/05/07 05:48:05;;;;;;;3.17;2.87;;;8.50;99.90;;;;;;5039852;28;20177;-60
2021/05/07 05:50:32;;;;;;;3.10;2.80;;;8.60;99.90;;;;;;5055759;28;20225;-60
2021/05/07 05:52:58;;;;;;;3.30;3.03;;;8.70;99.90;;;;;;5055685;28;20411;-60
2021/05/07 05:55:23;;;;;;;3.20;2.90;;;8.50;99.90;;;;;;5055284;28;20439;-60
2021/05/07 05:57:51;;;;;;;3.00;2.80;;;8.50;99.90;;;;;;5055000;28;20275;-60
2021/05/07 06:00:17;;;;;;;3.50;3.20;;;8.60;99.90;;;;;;5055714;28;20628;-60
2021/05/07 06:02:43;;;;;;;4.67;3.23;;;8.50;99.90;;;;;;5054414;28;20801;-60
2021/05/07 06:05:10;;;;;;;3.90;3.50;;;8.70;99.90;;;;;;5055096;28;20442;-60
2021/05/07 06:07:37;;;;;;;4.43;3.40;;;9.10;99.90;;;;;;5055497;28;20159;-60
2021/05/07 06:10:03;;;;;;;3.90;3.60;;;8.80;99.90;;;;;;5055111;28;20406;-59
2021/05/07 06:12:29;;;;;;;4.67;4.27;;;9.00;99.90;;;;;;5055148;28;20827;-60
2021/05/07 06:14:54;;;;;;;4.07;3.70;;;8.90;99.90;;;;;;5054856;28;20431;-60
2021/05/07 06:17:20;;;;;;;4.07;3.50;;;8.90;99.90;;;;;;5055330;28;20537;-59
2021/05/07 06:19:46;;;;;;;4.50;4.10;;;9.00;99.90;;;;;;5055550;28;20229;-58
2021/05/07 06:22:11;;;;;;;6.33;4.37;;;8.90;99.90;;;;;;5055069;28;20243;-59
2021/05/07 06:24:37;;;;;;;5.30;4.63;;;9.00;99.90;;;;;;5054603;28;20251;-60
2021/05/07 06:27:02;;;;;;;5.70;4.23;;;9.10;99.90;;;;;;5055150;28;20181;-59
2021/05/07 06:29:28;;;;;;;4.90;4.50;;;9.10;99.90;;;;;;5054920;28;20694;-59
2021/05/07 06:31:54;;;;;;;4.97;4.20;;;9.10;99.90;;;;;;5055176;28;20543;-59
2021/05/07 06:34:19;;;;;;;4.90;4.30;;;9.10;99.90;;;;;;5054354;28;20183;-59
2021/05/07 06:36:45;;;;;;;4.70;4.30;;;9.20;99.90;;;;;;5054738;28;20293;-60
2021/05/07 06:39:10;;;;;;;6.27;5.03;;;9.10;99.90;;;;;;5054583;28;20168;-59
2021/05/07 06:41:36;;;;;;;5.10;4.70;;;9.20;99.90;;;;;;5054833;28;20198;-59
2021/05/07 06:44:01;;;;;;;5.90;5.30;;;9.40;99.90;;;;;;5054880;28;20164;-60
2021/05/07 06:46:27;;;;;;;5.60;4.83;;;9.40;99.90;;;;;;5054340;28;20663;-58
2021/05/07 06:48:53;;;;;;;5.50;4.97;;;9.20;99.90;;;;;;5054239;28;20169;-59
2021/05/07 06:51:18;;;;;;;5.43;4.93;;;9.10;99.90;;;;;;5054485;28;20167;-60
2021/05/07 06:53:44;;;;;;;6.70;6.10;;;9.10;99.90;;;;;;5054821;28;20196;-60
2021/05/07 06:56:10;;;;;;;6.17;5.03;;;9.10;99.90;;;;;;5055140;28;20195;-60
2021/05/07 06:58:37;;;;;;;7.50;6.03;;;8.90;99.90;;;;;;5054000;28;20196;-59
2021/05/07 07:01:03;;;;;;;7.03;6.43;;;9.10;99.90;;;;;;5054622;28;20773;-59
2021/05/07 07:03:29;;;;;;;6.60;6.00;;;9.00;99.90;;;;;;5054284;28;20435;-58
2021/05/07 07:05:54;;;;;;;8.17;7.37;;;8.90;99.90;;;;;;5053867;28;20445;-59
2021/05/07 07:08:20;;;;;;;7.67;6.97;;;8.90;99.90;;;;;;5054417;28;20177;-59
2021/05/07 07:10:45;;;;;;;7.87;7.03;;;8.90;99.90;;;;;;5054351;28;20180;-57
2021/05/07 07:13:11;;;;;;;7.27;6.67;;;8.90;99.90;;;;;;5054482;28;20176;-58
2021/05/07 07:15:37;;;;;;;7.73;7.03;;;8.80;99.90;;;;;;5054367;28;20203;-58
2021/05/07 07:18:02;;;;;;;7.83;7.13;;;8.80;99.90;;;;;;5053679;28;20203;-59
2021/05/07 07:20:30;;;;;;;7.57;6.87;;;8.90;99.90;;;;;;5052837;28;20177;-59
2021/05/07 07:22:59;;;;;;;8.10;7.30;;;8.90;99.90;;;;;;5053594;28;20249;-59
2021/05/07 07:25:24;;;;;;;6.97;6.37;;;9.10;99.90;;;;;;5053733;28;20493;-59
2021/05/07 07:27:50;;;;;;;7.50;6.80;;;9.10;99.90;;;;;;5053290;28;20978;-56
2021/05/07 07:30:16;;;;;;;8.50;7.80;;;9.10;99.90;;;;;;5053537;28;20171;-56
2021/05/07 07:32:42;;;;;;;7.87;7.13;;;9.00;99.90;;;;;;5053790;28;20555;-58
2021/05/07 07:35:09;;;;;;;8.63;7.73;;;8.90;99.90;;;;;;5053662;28;20428;-56
2021/05/07 07:37:35;;;;;;;6.73;6.13;;;8.90;99.90;;;;;;5053065;28;20192;-57
2021/05/07 07:40:02;;;;;;;8.07;7.37;;;9.00;99.90;;;;;;5053250;28;20397;-59
2021/05/07 07:42:28;;;;;;;7.40;6.73;;;9.20;99.90;;;;;;5053237;28;20408;-59
2021/05/07 07:44:54;;;;;;;7.80;7.10;;;9.00;99.90;;;;;;5053539;28;20404;-59
2021/05/07 07:47:19;;;;;;;8.13;7.33;;;8.80;99.90;;;;;;5053214;28;20548;-59
2021/05/07 07:49:45;;;;;;;7.73;6.90;;;8.90;99.90;;;;;;5053045;28;20411;-58
2021/05/07 07:52:11;;;;;;;7.50;6.60;;;9.00;99.90;;;;;;5059232;28;20680;-59
2021/05/07 07:54:37;;;;;;;8.20;7.40;;;9.00;99.90;;;;;;5072722;28;20172;-59
2021/05/07 07:57:03;;;;;;;7.80;6.57;;;9.20;99.90;;;;;;5057398;28;20684;-59
2021/05/07 07:59:29;;;;;;;7.10;6.50;;;9.10;99.90;;;;;;5052802;28;20401;-59
2021/05/07 08:01:54;;;;;;;6.83;6.30;;;9.20;99.90;;;;;;5053210;28;20406;-59
2021/05/07 08:04:20;;;;;;;9.27;7.37;;;9.40;99.90;;;;;;5053361;28;20561;-58
2021/05/07 08:06:46;;;;;;;9.27;7.33;;;9.40;99.90;;;;;;5082899;22;20592;-57
2021/05/07 08:09:12;;;;;;;8.30;7.50;;;9.70;99.90;;;;;;5072537;28;20221;-55
2021/05/07 08:11:37;;;;;;;8.00;7.20;;;9.60;99.90;;;;;;5073405;28;20255;-58
2021/05/07 08:14:03;;;;;;;8.50;7.70;;;9.70;99.90;;;;;;5072679;28;20486;-58
2021/05/07 08:16:29;;;;;;;6.83;6.23;;;9.70;99.90;;;;;;5073053;28;20179;-57
2021/05/07 08:18:55;;;;;;;9.30;7.70;;;9.80;99.90;;;;;;5072857;28;20192;-58
2021/05/07 08:21:23;;;;;;;7.80;7.00;;;9.90;99.90;;;;;;5072837;28;20402;-57
2021/05/07 08:23:49;;;;;;;8.00;7.20;;;10.00;99.90;;;;;;5072517;28;20659;-57
2021/05/07 08:26:15;;;;;;;9.00;6.50;;;10.40;99.90;;;;;;5073447;28;20414;-57
2021/05/07 08:28:40;;;;;;;7.60;6.80;;;10.40;99.90;;;;;;5054784;28;20260;-56
2021/05/07 08:31:06;;;;;;;7.77;6.90;;;10.50;99.90;;;;;;5072706;28;20403;-56
2021/05/07 08:33:32;;;;;;;7.47;6.87;;;10.60;99.90;;;;;;5073240;28;20530;-57
2021/05/07 08:35:57;;;;;;;7.10;6.53;;;10.70;99.90;;;;;;5073008;28;20192;-57
2021/05/07 08:38:23;;;;;;;6.97;6.20;;;10.90;99.90;;;;;;5072814;28;20679;-57
2021/05/07 08:40:49;;;;;;;5.50;5.00;;;11.10;99.90;;;;;;5072960;28;20177;-57
2021/05/07 08:43:14;;;;;;;6.00;5.50;;;11.00;99.90;;;;;;5061517;28;20177;-59
2021/05/07 08:45:40;;;;;;;5.97;5.37;;;10.90;99.90;;;;;;5068309;28;20197;-57
2021/05/07 08:48:07;;;;;;;5.00;4.60;;;10.50;99.90;;;;;;5072968;28;20397;-57
2021/05/07 08:50:34;;;;;;;5.93;4.83;;;10.70;99.90;;;;;;5070967;28;20421;-58
2021/05/07 08:52:59;;;;;;;5.43;5.03;;;11.00;99.90;;;;;;5072866;28;20396;-57
2021/05/07 08:55:25;;;;;;;8.93;5.20;;;11.20;99.90;;;;;;5072577;28;20492;-56
2021/05/07 08:57:51;;;;;;;5.10;4.60;;;11.20;99.90;;;;;;5069350;28;20228;-55
2021/05/07 09:00:17;;;;;;;8.23;4.40;;;11.30;99.90;;;;;;5072620;28;20544;-57
2021/05/07 09:02:42;;;;;;;4.93;4.57;;;11.10;99.90;;;;;;5072587;28;20166;-55
2021/05/07 09:05:08;;;;;;;4.70;4.30;;;11.10;99.90;;;;;;5072324;28;20935;-57
2021/05/07 09:07:35;;;;;;;5.30;4.50;;;11.20;99.90;;;;;;5072720;28;20246;-57
2021/05/07 09:10:02;;;;;;;4.27;3.87;;;11.30;99.90;;;;;;5072136;28;20775;-56
2021/05/07 09:12:29;;;;;;;4.97;4.47;;;11.40;99.90;;;;;;5071502;28;20434;-55
2021/05/07 09:14:56;;;;;;;4.13;3.83;;;11.60;99.90;;;;;;5072192;28;20499;-56
2021/05/07 09:17:23;;;;;;;4.90;4.03;;;11.60;99.90;;;;;;5071559;28;20440;-57
2021/05/07 09:20:00;;;;;;;4.73;4.33;;;11.60;99.90;;;;;;5071944;28;20450;-58
2021/05/07 09:22:26;;;;;;;5.37;4.30;;;12.00;99.90;;;;;;5075964;28;20421;-56
2021/05/07 09:25:04;;;;;;;4.37;4.07;;;12.20;99.90;;;;;;5076051;28;20435;-56
2021/05/07 09:27:30;;;;;;;6.67;5.80;;;11.70;99.90;;;;;;5076562;28;20173;-57
2021/05/07 09:29:55;;;;;;;5.03;4.47;;;11.60;99.90;;;;;;5074521;28;20416;-56
2021/05/07 09:32:34;;;;;;;4.47;4.07;;;11.70;99.90;;;;;;5075943;28;20217;-56
2021/05/07 09:35:09;;;;;;;5.80;4.97;;;11.90;99.90;;;;;;5075635;28;20205;-56
2021/05/07 09:37:35;;;;;;;5.33;4.87;;;12.00;99.30;;;;;;5075483;28;20439;-57
2021/05/07 09:40:27;;;;;;;5.20;4.70;;;11.90;99.90;;;;;;5074625;28;20432;-57
2021/05/07 09:43:06;;;;;;;5.70;5.10;;;12.00;99.90;;;;;;5073808;28;20419;-56
2021/05/07 09:45:33;;;;;;;5.40;4.90;;;11.80;99.90;;;;;;5074881;28;20436;-56
2021/05/07 09:47:59;;;;;;;5.30;4.80;;;11.70;99.50;;;;;;5075393;28;20404;-57
2021/05/07 09:50:40;;;;;;;6.03;4.60;;;11.60;99.80;;;;;;5075117;28;20764;-56
2021/05/07 09:53:19;;;;;;;4.67;4.27;;;11.40;98.20;;;;;;5075918;28;20615;-57
2021/05/07 09:55:46;;;;;;;4.37;3.97;;;11.50;97.10;;;;;;5074963;28;20765;-57
2021/05/07 09:58:12;;;;;;;5.20;4.50;;;11.80;97.50;;;;;;5072995;28;20482;-57
2021/05/07 10:00:38;;;;;;;6.70;3.83;;;11.80;95.70;;;;;;5075021;28;20442;-56
2021/05/07 10:03:04;;;;;;;6.57;4.60;;;11.90;95.90;;;;;;5075179;28;20397;-58
2021/05/07 10:05:30;;;;;;;4.33;3.90;;;12.10;95.90;;;;;;5075034;28;20813;-57
2021/05/07 10:07:58;;;;;;;4.00;3.60;;;12.30;95.60;;;;;;5075451;28;20404;-56
2021/05/07 10:10:31;;;;;;;4.50;4.10;;;12.50;93.00;;;;;;5075287;28;20180;-57
2021/05/07 10:13:00;;;;;;;5.83;3.57;;;12.60;93.60;;;;;;5074629;28;20510;-55
2021/05/07 10:15:31;;;;;;;4.17;3.87;;;12.80;94.90;;;;;;5075026;28;20519;-57
2021/05/07 10:17:57;;;;;;;4.50;4.00;;;12.70;93.10;;;;;;5074752;28;20973;-57
2021/05/07 10:20:33;;;;;;;4.70;4.30;;;12.60;94.40;;;;;;5074757;28;20416;-58
2021/05/07 10:23:00;;;;;;;4.13;3.70;;;12.60;93.70;;;;;;5074884;28;20808;-56
2021/05/07 10:25:27;;;;;;;4.63;4.30;;;12.90;94.20;;;;;;5074885;28;20511;-57
2021/05/07 10:27:55;;;;;;;4.00;3.70;;;12.60;94.00;;;;;;5074458;28;20424;-57
2021/05/07 10:30:29;;;;;;;4.73;3.67;;;12.40;92.50;;;;;;5074716;28;20453;-57
2021/05/07 10:33:00;;;;;;;4.03;3.60;;;12.20;92.90;;;;;;5074432;28;20387;-56
2021/05/07 10:35:39;;;;;;;4.10;3.80;;;12.30;93.40;;;;;;5075125;28;20431;-56
2021/05/07 10:38:19;;;;;;;4.27;3.87;;;12.30;91.60;;;;;;5074008;28;20471;-57
2021/05/07 10:40:48;;;;;;;6.10;4.10;;;12.30;93.40;;;;;;5074641;28;20490;-56
2021/05/07 10:43:14;;;;;;;4.47;4.07;;;12.40;92.10;;;;;;5073757;28;20422;-56
2021/05/07 10:45:40;;;;;;;6.60;4.50;;;12.80;93.40;;;;;;5074357;28;20416;-58
2021/05/07 10:48:13;;;;;;;4.03;3.63;;;13.40;91.30;;;;;;5074428;28;20196;-58
2021/05/07 10:50:42;;;;;;;4.17;3.87;;;13.40;91.00;;;;;;5074226;28;20226;-57
2021/05/07 10:53:08;;;;;;;4.40;4.00;;;12.90;91.80;;;;;;5073884;28;20500;-55
2021/05/07 10:55:35;;;;;;;5.10;4.57;;;12.80;92.70;;;;;;5074356;28;20515;-56
2021/05/07 10:58:01;;;;;;;4.43;3.80;;;12.90;92.50;;;;;;5074219;28;20543;-56
2021/05/07 11:00:39;;;;;;;8.20;3.30;;;13.10;92.50;;;;;;5074158;28;20400;-56
2021/05/07 11:03:16;;;;;;;5.23;3.50;;;13.80;91.70;;;;;;5074114;28;20409;-55
2021/05/07 11:05:47;;;;;;;3.77;3.20;;;13.90;89.30;;;;;;5073820;28;20452;-56
2021/05/07 11:08:13;;;;;;;4.13;3.83;;;13.40;87.30;;;;;;5073755;28;20409;-56
2021/05/07 11:10:38;;;;;;;4.60;3.27;;;13.00;87.00;;;;;;5074307;28;20408;-56
2021/05/07 11:13:08;;;;;;;4.60;3.03;;;12.90;89.50;;;;;;5073426;28;20453;-57
2021/05/07 11:15:34;;;;;;;5.80;3.27;;;13.70;87.10;;;;;;5073753;28;20666;-57
2021/05/07 11:18:03;;;;;;;4.10;3.70;;;13.90;87.00;;;;;;5074295;28;20792;-56
2021/05/07 11:20:36;;;;;;;4.33;3.90;;;13.60;87.70;;;;;;5073479;28;20407;-52
2021/05/07 11:23:04;;;;;;;3.80;3.50;;;12.70;86.70;;;;;;5073606;28;20450;-56
2021/05/07 11:25:34;;;;;;;3.80;3.50;;;13.40;87.80;;;;;;5073825;28;20416;-56
2021/05/07 11:28:18;;;;;;;4.80;3.17;;;14.60;89.20;;;;;;5073498;28;20444;-57
2021/05/07 11:30:47;;;;;;;5.03;3.73;;;16.10;80.10;;;;;;5073721;28;20383;-56
2021/05/07 11:33:13;;;;;;;2.93;2.73;;;16.40;74.50;;;;;;5073219;28;20402;-57
2021/05/07 11:35:38;;;;;;;3.90;3.57;;;15.00;76.80;;;;;;5067802;28;20449;-57
2021/05/07 11:38:04;;;;;;;4.47;3.27;;;14.30;78.10;;;;;;5055674;28;20230;-55
2021/05/07 11:40:38;;;;;;;4.83;4.10;;;14.10;82.10;;;;;;5035380;28;20251;-57
2021/05/07 11:43:11;;;;;;;4.00;3.57;;;13.70;81.80;;;;;;5052764;28;20170;-59
2021/05/07 11:45:37;;;;;;;4.53;3.50;;;13.50;85.00;;;;;;5053359;28;20428;-57
2021/05/07 11:48:13;;;;;;;3.97;3.67;;;13.10;86.80;;;;;;5052934;28;20413;-57
2021/05/07 11:50:40;;;;;;;3.63;3.33;;;13.40;85.00;;;;;;5053240;28;20478;-57
2021/05/07 11:53:21;;;;;;;4.97;4.10;;;14.20;84.20;;;;;;5052924;28;20412;-56
2021/05/07 11:55:47;;;;;;;3.47;3.17;;;15.00;84.00;;;;;;5065801;28;20511;-57
2021/05/07 11:58:13;;;;;;;5.00;3.67;;;15.20;83.00;;;;;;5072873;28;20553;-58
2021/05/07 12:00:40;;;;;;;4.87;3.53;;;14.90;86.50;;;;;;5072973;28;20165;-57
2021/05/07 12:03:14;;;;;;;5.73;4.73;;;13.80;84.50;;;;;;5073105;28;20168;-55
2021/05/07 12:05:45;;;;;;;4.93;4.43;;;13.30;89.30;;;;;;5073000;28;20810;-57
2021/05/07 12:08:11;;;;;;;4.07;3.63;;;13.70;90.00;;;;;;5072922;28;20417;-58
2021/05/07 12:10:38;;;;;;;4.70;3.70;;;15.20;88.20;;;;;;5073250;28;20415;-58
2021/05/07 12:13:04;;;;;;;4.10;3.67;;;17.60;80.90;;;;;;5073236;28;20479;-58
2021/05/07 12:15:43;;;;;;;3.73;3.40;;;18.10;74.00;;;;;;5072417;28;20431;-58
2021/05/07 12:18:18;;;;;;;3.60;3.07;;;17.30;73.60;;;;;;5073137;28;20674;-57
2021/05/07 12:20:46;;;;;;;2.77;2.57;;;16.70;77.20;;;;;;5073066;28;20494;-58
2021/05/07 12:23:13;;;;;;;3.07;2.77;;;15.80;77.40;;;;;;5072552;28;20434;-58
2021/05/07 12:25:46;;;;;;;4.30;3.70;;;15.20;78.10;;;;;;5073004;28;20837;-57
2021/05/07 12:28:16;;;;;;;3.40;3.10;;;14.80;80.80;;;;;;5072415;28;20413;-58
2021/05/07 12:30:44;;;;;;;4.10;3.17;;;14.70;79.10;;;;;;5074051;28;20799;-57
2021/05/07 12:33:24;;;;;;;5.90;4.63;;;15.60;77.50;;;;;;5073018;28;20821;-55
2021/05/07 12:35:52;;;;;;;5.47;4.90;;;15.60;75.90;;;;;;5072551;28;20517;-57
2021/05/07 12:38:35;;;;;;;7.57;4.97;;;14.70;75.00;;;;;;5072602;28;20443;-56
2021/05/07 12:41:07;;;;;;;30.00;20.23;;;14.10;75.70;;;;;;5072987;28;20379;-58
2021/05/07 12:43:44;;;;;;;31.37;20.93;;;13.40;78.10;;;;;;5073329;28;20416;-54
2021/05/07 12:46:12;;;;;;;14.73;11.10;;;13.20;80.00;;;;;;5072736;28;20481;-55
2021/05/07 12:48:38;;;;;;;35.93;26.13;;;13.00;80.90;;;;;;5072937;28;20893;-56
2021/05/07 12:51:08;;;;;;;29.33;18.30;;;13.30;83.30;;;;;;5072851;28;20416;-57
2021/05/07 12:53:37;;;;;;;16.83;10.33;;;15.10;79.90;;;;;;5071809;28;20177;-57
2021/05/07 12:56:03;;;;;;;35.80;22.70;;;16.60;74.70;;;;;;5073895;28;20434;-57